LNR641N KLAX-EGNX
Flight info
| Callsign | LNR641N |
|---|---|
| Flight time | N/A |
| Altitude | 31000 |
| Route | SEBBY3 DAG J100 BCE DCT KD57Q DCT KD66S DCT KD81W DCT KP03A DCT KP09C DCT KP18G DCT 49N090W 5130N08000W/N0491F330 5330N07000W DCT DORYY/M084F330 DCT 57N050W 58N040W 58N030W 57N020W DCT BILTO/N0483F330 DCT BEGID DCT KUGUR DCT MAKUX |
| Aircraft | B77L/H-SDE1E2E3FGHIJ2J3J4J5M1RWXY/LB1D1 |
Departure
| Time | N/A |
|---|---|
| Airport | Los Angeles International Airport (KLAX) |
Arrival
| Time | 2026-05-04 08:31 |
|---|---|
| Airport | East Midlands Airport (EGNX) |
| Time | Latitude | Longitude | Altitude | Speed | Heading |
|---|---|---|---|---|---|
| 2026-05-04 07:09 | 56.64109 | -16.21420 | 33125 ft | 516 kts | 103° |
| 2026-05-04 07:09 | 56.63398 | -16.15021 | 33121 ft | 516 kts | 103° |
| 2026-05-04 07:10 | 56.61975 | -16.02327 | 33118 ft | 516 kts | 103° |
| 2026-05-04 07:12 | 56.56161 | -15.51681 | 33116 ft | 513 kts | 103° |
| 2026-05-04 07:12 | 56.54681 | -15.39089 | 33115 ft | 513 kts | 103° |
| 2026-05-04 07:13 | 56.53179 | -15.26428 | 33113 ft | 513 kts | 103° |
| 2026-05-04 07:13 | 56.51665 | -15.13765 | 33116 ft | 514 kts | 103° |
| 2026-05-04 07:14 | 56.49920 | -14.88325 | 33119 ft | 515 kts | 89° |
| 2026-05-04 07:14 | 56.49973 | -14.81838 | 33114 ft | 515 kts | 89° |
| 2026-05-04 07:15 | 56.50066 | -14.68966 | 33116 ft | 514 kts | 89° |
| 2026-05-04 07:15 | 56.50099 | -14.56048 | 33112 ft | 511 kts | 89° |
| 2026-05-04 07:16 | 56.50096 | -14.43205 | 33102 ft | 509 kts | 89° |
| 2026-05-04 07:16 | 56.50081 | -14.30391 | 33098 ft | 508 kts | 89° |
| 2026-05-04 07:17 | 56.50058 | -14.17619 | 33091 ft | 507 kts | 89° |
| 2026-05-04 07:17 | 56.49831 | -14.04854 | 33106 ft | 507 kts | 97° |
| 2026-05-04 07:18 | 56.48321 | -13.92572 | 33107 ft | 509 kts | 108° |
| 2026-05-04 07:18 | 56.45698 | -13.80766 | 33115 ft | 509 kts | 113° |
| 2026-05-04 07:19 | 56.42900 | -13.68976 | 33101 ft | 510 kts | 113° |
| 2026-05-04 07:19 | 56.40114 | -13.57143 | 33103 ft | 511 kts | 113° |
| 2026-05-04 07:20 | 56.37371 | -13.45405 | 33087 ft | 511 kts | 112° |
| 2026-05-04 07:20 | 56.34619 | -13.33635 | 33097 ft | 509 kts | 112° |
| 2026-05-04 07:22 | 56.23592 | -12.87177 | 33096 ft | 504 kts | 113° |
| 2026-05-04 07:23 | 56.20806 | -12.75598 | 33104 ft | 505 kts | 113° |
| 2026-05-04 07:23 | 56.18007 | -12.64029 | 33122 ft | 505 kts | 112° |
| 2026-05-04 07:24 | 56.15219 | -12.52563 | 33097 ft | 504 kts | 112° |
| 2026-05-04 07:24 | 56.12407 | -12.41062 | 33095 ft | 503 kts | 113° |
| 2026-05-04 07:26 | 56.01153 | -11.95625 | 33103 ft | 502 kts | 113° |
| 2026-05-04 07:27 | 55.98305 | -11.84275 | 33113 ft | 501 kts | 113° |
| 2026-05-04 07:27 | 55.95465 | -11.73011 | 33095 ft | 500 kts | 113° |
| 2026-05-04 07:28 | 55.92606 | -11.61730 | 33099 ft | 498 kts | 113° |
| 2026-05-04 07:28 | 55.89738 | -11.50472 | 33099 ft | 498 kts | 113° |
| 2026-05-04 07:29 | 55.86862 | -11.39238 | 33106 ft | 497 kts | 113° |
| 2026-05-04 07:29 | 55.83998 | -11.28111 | 33103 ft | 498 kts | 113° |
| 2026-05-04 07:30 | 55.81103 | -11.16917 | 33103 ft | 498 kts | 113° |
| 2026-05-04 07:30 | 55.78196 | -11.05731 | 33109 ft | 497 kts | 113° |
| 2026-05-04 07:31 | 55.75824 | -10.96644 | 33101 ft | 496 kts | 113° |
| 2026-05-04 07:33 | 55.64169 | -10.52524 | 33102 ft | 494 kts | 113° |
| 2026-05-04 07:33 | 55.61224 | -10.41511 | 33106 ft | 494 kts | 114° |
| 2026-05-04 07:34 | 55.58270 | -10.30516 | 33103 ft | 495 kts | 114° |
| 2026-05-04 07:34 | 55.55327 | -10.19611 | 33106 ft | 495 kts | 114° |
| 2026-05-04 07:35 | 55.52343 | -10.08606 | 33107 ft | 495 kts | 114° |
| 2026-05-04 07:35 | 55.49410 | -9.97831 | 33115 ft | 496 kts | 114° |
| 2026-05-04 07:36 | 55.46459 | -9.86833 | 33113 ft | 496 kts | 113° |
| 2026-05-04 07:38 | 55.34671 | -9.43111 | 33118 ft | 492 kts | 113° |
| 2026-05-04 07:38 | 55.31708 | -9.32275 | 33109 ft | 491 kts | 113° |
| 2026-05-04 07:39 | 55.28739 | -9.21462 | 33109 ft | 491 kts | 113° |
| 2026-05-04 07:39 | 55.25762 | -9.10674 | 33109 ft | 491 kts | 113° |
| 2026-05-04 07:40 | 55.22797 | -8.99978 | 33111 ft | 491 kts | 113° |
| 2026-05-04 07:40 | 55.19847 | -8.89384 | 33108 ft | 492 kts | 113° |
| 2026-05-04 07:41 | 55.16837 | -8.78632 | 33114 ft | 491 kts | 113° |
| 2026-05-04 07:41 | 55.13825 | -8.67912 | 33104 ft | 491 kts | 113° |
| 2026-05-04 07:42 | 55.10820 | -8.57272 | 33100 ft | 490 kts | 113° |
| 2026-05-04 07:42 | 55.07797 | -8.46616 | 33100 ft | 489 kts | 113° |
| 2026-05-04 07:43 | 55.04759 | -8.35957 | 33104 ft | 489 kts | 113° |
| 2026-05-04 07:43 | 55.01735 | -8.25393 | 33105 ft | 489 kts | 113° |
| 2026-05-04 07:44 | 54.98690 | -8.14806 | 33107 ft | 490 kts | 113° |
| 2026-05-04 07:44 | 54.95633 | -8.04225 | 33097 ft | 488 kts | 113° |
| 2026-05-04 07:45 | 54.92638 | -7.93906 | 33093 ft | 486 kts | 113° |
| 2026-05-04 07:45 | 54.89598 | -7.83478 | 33089 ft | 484 kts | 113° |
| 2026-05-04 07:46 | 54.86547 | -7.73058 | 33099 ft | 483 kts | 113° |
| 2026-05-04 07:46 | 54.83487 | -7.62650 | 33101 ft | 483 kts | 113° |
| 2026-05-04 07:47 | 54.80434 | -7.52312 | 33095 ft | 484 kts | 113° |
| 2026-05-04 07:49 | 54.68072 | -7.10921 | 33092 ft | 483 kts | 113° |
| 2026-05-04 07:49 | 54.64965 | -7.00632 | 33102 ft | 482 kts | 113° |
| 2026-05-04 07:50 | 54.61912 | -6.90560 | 33095 ft | 482 kts | 113° |
| 2026-05-04 07:50 | 54.58792 | -6.80313 | 33091 ft | 482 kts | 113° |
| 2026-05-04 07:51 | 54.55664 | -6.70083 | 33104 ft | 482 kts | 113° |
| 2026-05-04 07:51 | 54.52548 | -6.59940 | 33090 ft | 481 kts | 113° |
| 2026-05-04 07:52 | 54.49416 | -6.49788 | 33086 ft | 479 kts | 113° |
| 2026-05-04 07:52 | 54.46280 | -6.39663 | 33092 ft | 479 kts | 113° |
| 2026-05-04 07:54 | 54.33701 | -5.99473 | 33097 ft | 480 kts | 113° |
| 2026-05-04 07:55 | 54.30520 | -5.89418 | 33086 ft | 479 kts | 114° |
| 2026-05-04 07:55 | 54.27346 | -5.79426 | 33083 ft | 477 kts | 114° |
| 2026-05-04 07:56 | 54.24166 | -5.69455 | 33076 ft | 476 kts | 114° |
| 2026-05-04 07:56 | 54.21008 | -5.59593 | 33074 ft | 476 kts | 114° |
| 2026-05-04 07:57 | 54.17820 | -5.49678 | 33074 ft | 476 kts | 114° |
| 2026-05-04 07:57 | 54.14626 | -5.39782 | 33074 ft | 476 kts | 114° |
| 2026-05-04 07:58 | 54.11416 | -5.29879 | 33033 ft | 477 kts | 114° |
| 2026-05-04 07:58 | 54.09789 | -5.24865 | 32155 ft | 486 kts | 114° |
| 2026-05-04 07:58 | 54.08166 | -5.19883 | 31339 ft | 485 kts | 114° |
| 2026-05-04 07:59 | 54.06528 | -5.14871 | 30563 ft | 482 kts | 114° |
| 2026-05-04 07:59 | 54.04902 | -5.09911 | 29915 ft | 477 kts | 114° |
| 2026-05-04 07:59 | 54.03295 | -5.05014 | 29209 ft | 471 kts | 115° |
| 2026-05-04 07:59 | 54.01700 | -5.00159 | 28585 ft | 465 kts | 115° |
| 2026-05-04 08:00 | 54.00180 | -4.95533 | 27993 ft | 460 kts | 115° |
| 2026-05-04 08:00 | 53.98627 | -4.90820 | 27421 ft | 455 kts | 115° |
| 2026-05-04 08:00 | 53.97078 | -4.86219 | 26947 ft | 449 kts | 118° |
| 2026-05-04 08:02 | 53.83907 | -4.56233 | 25980 ft | 449 kts | 123° |
| 2026-05-04 08:02 | 53.82044 | -4.51977 | 25828 ft | 448 kts | 123° |
| 2026-05-04 08:02 | 53.80184 | -4.47744 | 25689 ft | 448 kts | 123° |
| 2026-05-04 08:03 | 53.78323 | -4.43515 | 25542 ft | 448 kts | 123° |
| 2026-05-04 08:03 | 53.76461 | -4.39290 | 25394 ft | 448 kts | 123° |
| 2026-05-04 08:03 | 53.74600 | -4.35074 | 25251 ft | 447 kts | 123° |
| 2026-05-04 08:03 | 53.72739 | -4.30861 | 25104 ft | 446 kts | 123° |
| 2026-05-04 08:04 | 53.70881 | -4.26664 | 24964 ft | 445 kts | 123° |
| 2026-05-04 08:04 | 53.69051 | -4.22535 | 24803 ft | 444 kts | 123° |
| 2026-05-04 08:04 | 53.67198 | -4.18359 | 24677 ft | 443 kts | 124° |
| 2026-05-04 08:04 | 53.65348 | -4.14198 | 24542 ft | 442 kts | 124° |
| 2026-05-04 08:05 | 53.63509 | -4.10070 | 24386 ft | 440 kts | 124° |
| 2026-05-04 08:05 | 53.61667 | -4.05947 | 24239 ft | 438 kts | 124° |
| 2026-05-04 08:05 | 53.59834 | -4.01852 | 24083 ft | 437 kts | 124° |
| 2026-05-04 08:05 | 53.58060 | -3.97893 | 23960 ft | 435 kts | 124° |
| 2026-05-04 08:06 | 53.56240 | -3.93838 | 23813 ft | 434 kts | 124° |
| 2026-05-04 08:06 | 53.54421 | -3.89787 | 23675 ft | 433 kts | 124° |
| 2026-05-04 08:06 | 53.52608 | -3.85758 | 23517 ft | 432 kts | 125° |
| 2026-05-04 08:06 | 53.50811 | -3.81769 | 23361 ft | 431 kts | 125° |
| 2026-05-04 08:08 | 53.37979 | -3.54169 | 22375 ft | 428 kts | 130° |
| 2026-05-04 08:08 | 53.35993 | -3.50461 | 22237 ft | 427 kts | 130° |
| 2026-05-04 08:10 | 53.20315 | -3.20912 | 21134 ft | 422 kts | 130° |
| 2026-05-04 08:11 | 53.18454 | -3.17150 | 20992 ft | 419 kts | 124° |
| 2026-05-04 08:11 | 53.15380 | -3.08950 | 20722 ft | 416 kts | 119° |
| 2026-05-04 08:11 | 53.13904 | -3.04813 | 20585 ft | 415 kts | 120° |
| 2026-05-04 08:12 | 53.12397 | -3.00707 | 20452 ft | 415 kts | 121° |
| 2026-05-04 08:12 | 53.10919 | -2.96786 | 20320 ft | 414 kts | 121° |
| 2026-05-04 08:12 | 53.09395 | -2.92794 | 20187 ft | 414 kts | 122° |
| 2026-05-04 08:12 | 53.07920 | -2.88643 | 20034 ft | 410 kts | 114° |
| 2026-05-04 08:13 | 53.07160 | -2.84102 | 19746 ft | 407 kts | 96° |
| 2026-05-04 08:13 | 53.06874 | -2.79459 | 19486 ft | 410 kts | 96° |
| 2026-05-04 08:13 | 53.06551 | -2.74716 | 19190 ft | 413 kts | 96° |
| 2026-05-04 08:13 | 53.06198 | -2.69985 | 18898 ft | 410 kts | 97° |
| 2026-05-04 08:14 | 53.05831 | -2.65312 | 18588 ft | 405 kts | 97° |
| 2026-05-04 08:14 | 53.05459 | -2.60696 | 18292 ft | 401 kts | 97° |
| 2026-05-04 08:14 | 53.05085 | -2.56111 | 17967 ft | 399 kts | 97° |
| 2026-05-04 08:16 | 53.02928 | -2.25499 | 16024 ft | 397 kts | 86° |
| 2026-05-04 08:16 | 53.03154 | -2.20928 | 15747 ft | 396 kts | 84° |
| 2026-05-04 08:16 | 53.03513 | -2.14886 | 15372 ft | 395 kts | 84° |
| 2026-05-04 08:17 | 53.03749 | -2.10342 | 15087 ft | 394 kts | 85° |
| 2026-05-04 08:17 | 53.03884 | -2.07330 | 14899 ft | 394 kts | 86° |
| 2026-05-04 08:17 | 53.04067 | -2.02793 | 14615 ft | 393 kts | 86° |
| 2026-05-04 08:17 | 53.04234 | -1.98416 | 14341 ft | 393 kts | 86° |
| 2026-05-04 08:19 | 53.05394 | -1.67032 | 12335 ft | 382 kts | 87° |
| 2026-05-04 08:19 | 53.05465 | -1.62622 | 12055 ft | 380 kts | 90° |
| 2026-05-04 08:20 | 53.05450 | -1.58244 | 11779 ft | 378 kts | 91° |
| 2026-05-04 08:20 | 53.05417 | -1.53902 | 11527 ft | 371 kts | 91° |
| 2026-05-04 08:20 | 53.05392 | -1.49712 | 11245 ft | 362 kts | 90° |
| 2026-05-04 08:20 | 53.05377 | -1.45529 | 10988 ft | 352 kts | 90° |
| 2026-05-04 08:21 | 53.05368 | -1.41552 | 10742 ft | 344 kts | 90° |
| 2026-05-04 08:21 | 53.05359 | -1.37606 | 10485 ft | 336 kts | 90° |
| 2026-05-04 08:21 | 53.05342 | -1.33751 | 10239 ft | 325 kts | 93° |
| 2026-05-04 08:21 | 53.04803 | -1.30281 | 9982 ft | 306 kts | 123° |
| 2026-05-04 08:22 | 53.03347 | -1.27987 | 9814 ft | 282 kts | 158° |
| 2026-05-04 08:22 | 53.01469 | -1.27503 | 9624 ft | 273 kts | 193° |
| 2026-05-04 08:24 | 53.00278 | -1.45641 | 8306 ft | 262 kts | 288° |
| 2026-05-04 08:24 | 53.00506 | -1.48485 | 8094 ft | 248 kts | 258° |
| 2026-05-04 08:24 | 52.99785 | -1.51022 | 7770 ft | 248 kts | 227° |
| 2026-05-04 08:24 | 52.98327 | -1.52544 | 7353 ft | 252 kts | 199° |
| 2026-05-04 08:25 | 52.96604 | -1.53168 | 6896 ft | 254 kts | 192° |
| 2026-05-04 08:25 | 52.94847 | -1.53670 | 6417 ft | 258 kts | 192° |
| 2026-05-04 08:25 | 52.93076 | -1.54168 | 5989 ft | 258 kts | 191° |
| 2026-05-04 08:25 | 52.91315 | -1.54669 | 5447 ft | 253 kts | 191° |
| 2026-05-04 08:26 | 52.89626 | -1.55158 | 4889 ft | 244 kts | 190° |
| 2026-05-04 08:27 | 52.82805 | -1.49446 | 2182 ft | 183 kts | 86° |
| 2026-05-04 08:28 | 52.82836 | -1.47406 | 1936 ft | 169 kts | 86° |
| 2026-05-04 08:28 | 52.82870 | -1.45575 | 1699 ft | 148 kts | 85° |
| 2026-05-04 08:28 | 52.82900 | -1.43920 | 1521 ft | 146 kts | 85° |
| 2026-05-04 08:28 | 52.82931 | -1.42227 | 1320 ft | 146 kts | 86° |
| 2026-05-04 08:29 | 52.82961 | -1.40572 | 1102 ft | 144 kts | 87° |
| 2026-05-04 08:29 | 52.82992 | -1.38919 | 832 ft | 143 kts | 85° |
| 2026-05-04 08:29 | 52.83026 | -1.37358 | 650 ft | 129 kts | 87° |
| 2026-05-04 08:31 | 52.82988 | -1.31323 | 305 ft | 12 kts | 199° |
| 2026-05-04 08:33 | 52.82934 | -1.32665 | 306 ft | 21 kts | 268° |
| 2026-05-04 08:33 | 52.82929 | -1.32904 | 307 ft | 21 kts | 268° |
| 2026-05-04 08:35 | 52.82907 | -1.34272 | 308 ft | 12 kts | 271° |
| 2026-05-04 08:35 | 52.82892 | -1.34394 | 311 ft | 10 kts | 214° |
| 2026-05-04 08:35 | 52.82834 | -1.34494 | 308 ft | 14 kts | 259° |
| 2026-05-04 08:35 | 52.82833 | -1.34526 | 308 ft | 1 kts | 268° |
| 2026-05-04 08:37 | 52.82825 | -1.34883 | 307 ft | 8 kts | 270° |
| 2026-05-04 08:37 | 52.82808 | -1.34951 | 307 ft | 7 kts | 207° |
| 2026-05-04 08:37 | 52.82779 | -1.34955 | 308 ft | 1 kts | 181° |
| 2026-05-04 08:38 | 52.82767 | -1.34954 | 308 ft | 2 kts | 179° |
| 2026-05-04 08:38 | 52.82756 | -1.34954 | 308 ft | 2 kts | 179° |
| 2026-05-04 08:38 | 52.82750 | -1.34954 | 308 ft | 0 kts | 179° |